Time;durP1;ratioP1;P1;durP2;ratioP2;P2;SDS_P1;SDS_P2;PMS_P1;PMS_P2;Temp;Humidity;BMP_temperature;BMP_pressure;BME280_temperature;BME280_humidity;BME280_pressure;Samples;Min_cycle;Max_cycle;Signal;HPM_P1;HPM_P2
2023/09/03 00:01:34;;;;;;;8.15;6.00;;;;;;;11.30;78.65;96721.06;6208282;28;20038;-72
2023/09/03 00:04:37;;;;;;;;;;;;;;;11.23;78.29;96726.72;6210464;28;20124;-73
2023/09/03 00:07:38;;;;;;;9.65;6.47;;;;;;;11.23;78.69;96726.72;6204882;28;19921;-73
2023/09/03 00:10:47;;;;;;;7.72;5.97;;;;;;;11.19;78.90;96716.53;6208920;28;20550;-72
2023/09/03 00:13:51;;;;;;;11.90;6.53;;;;;;;11.30;79.09;96716.63;6206837;28;20493;-73
2023/09/03 00:16:55;;;;;;;9.18;6.43;;;;;;;11.54;78.39;96726.38;6208544;28;20038;-73
2023/09/03 00:20:00;;;;;;;11.25;6.35;;;;;;;11.63;78.16;96718.66;6216162;28;20428;-73
2023/09/03 00:23:08;;;;;;;8.02;6.60;;;;;;;11.76;77.81;96717.78;6186959;28;20038;-73
2023/09/03 00:26:21;;;;;;;9.02;6.72;;;;;;;11.95;77.36;96722.59;6211369;28;20425;-73
2023/09/03 00:29:26;;;;;;;13.10;6.65;;;;;;;11.97;77.11;96726.78;6208454;28;20215;-73
2023/09/03 00:32:30;;;;;;;8.77;6.07;;;;;;;12.08;76.71;96732.13;6213067;28;20054;-73
2023/09/03 00:35:34;;;;;;;8.95;6.65;;;;;;;12.18;76.20;96742.84;6210173;28;20428;-73
2023/09/03 00:38:38;;;;;;;;;;;;;;;12.22;75.91;96736.38;6213386;28;20038;-73
2023/09/03 00:41:42;;;;;;;8.65;6.63;;;;;;;12.05;76.07;96729.72;6214841;28;19928;-73
2023/09/03 00:44:43;;;;;;;8.20;6.35;;;;;;;11.98;76.29;96733.75;6215558;28;20046;-73
2023/09/03 00:47:45;;;;;;;6.63;5.82;;;;;;;12.00;76.27;96745.03;6213505;28;20080;-73
2023/09/03 00:50:51;;;;;;;8.02;6.72;;;;;;;11.98;76.56;96740.84;6211506;28;20497;-73
2023/09/03 00:53:56;;;;;;;9.27;6.45;;;;;;;12.14;76.08;96741.38;6209205;28;20421;-73
2023/09/03 00:57:06;;;;;;;8.60;5.82;;;;;;;12.08;75.98;96737.38;6213378;28;20058;-74
2023/09/03 01:00:12;;;;;;;7.90;5.85;;;;;;;12.09;75.83;96741.72;6211023;28;20056;-73
2023/09/03 01:03:21;;;;;;;8.77;6.15;;;;;;;12.05;75.97;96737.63;6212935;28;20121;-73
2023/09/03 01:06:27;;;;;;;8.02;6.53;;;;;;;12.29;75.46;96753.47;6194099;28;20091;-73
2023/09/03 01:09:34;;;;;;;9.20;6.43;;;;;;;12.26;75.81;96758.13;6215226;28;20042;-73
2023/09/03 01:12:44;;;;;;;8.30;6.40;;;;;;;12.30;75.65;96759.56;6214693;28;20042;-73
2023/09/03 01:15:57;;;;;;;7.28;6.30;;;;;;;12.35;75.56;96766.19;6215958;28;20042;-73
2023/09/03 01:19:42;;;;;;;8.32;5.78;;;;;;;12.46;75.29;96765.41;6217652;28;20034;-73
2023/09/03 01:23:10;;;;;;;7.68;5.78;;;;;;;12.53;74.91;96771.91;6211727;28;21920;-74
2023/09/03 01:26:34;;;;;;;9.52;7.07;;;;;;;12.68;74.36;96782.25;6212960;28;20061;-74
2023/09/03 01:29:40;;;;;;;6.43;5.70;;;;;;;12.64;74.32;96778.19;6208557;28;20046;-73
2023/09/03 01:32:47;;;;;;;9.80;6.72;;;;;;;12.62;74.40;96785.38;6185529;28;20192;-73
2023/09/03 01:35:53;;;;;;;7.45;6.38;;;;;;;12.71;74.10;96788.19;6218515;28;20053;-73
2023/09/03 01:39:04;;;;;;;9.40;5.88;;;;;;;12.65;74.67;96793.06;6195940;28;20038;-73
2023/09/03 01:42:05;;;;;;;6.75;5.50;;;;;;;12.67;74.40;96796.44;6200049;28;20057;-74
2023/09/03 01:45:07;;;;;;;7.43;6.00;;;;;;;12.64;74.61;96794.03;6210663;28;20038;-73
2023/09/03 01:48:34;;;;;;;7.72;6.53;;;;;;;12.71;74.46;96796.09;6215336;28;20042;-73
2023/09/03 01:52:00;;;;;;;7.18;5.75;;;;;;;12.78;74.42;96801.75;6217886;28;20186;-73
2023/09/03 01:55:08;;;;;;;8.18;5.78;;;;;;;12.81;74.09;96804.16;6218667;28;20038;-73
2023/09/03 01:58:14;;;;;;;6.47;5.53;;;;;;;12.70;74.27;96788.28;6195317;28;20436;-73
2023/09/03 02:01:25;;;;;;;9.75;6.55;;;;;;;12.72;74.43;96807.50;6213194;28;20038;-73
2023/09/03 02:04:26;;;;;;;6.63;5.45;;;;;;;12.78;74.68;96807.03;6208971;28;20053;-74
2023/09/03 02:07:34;;;;;;;10.15;6.07;;;;;;;12.78;74.79;96805.22;6216274;28;20661;-73
2023/09/03 02:10:40;;;;;;;7.15;5.80;;;;;;;12.92;74.21;96798.91;6194807;28;20046;-75
2023/09/03 02:13:46;;;;;;;6.78;5.13;;;;;;;12.86;74.13;96791.47;6215557;28;20393;-74
2023/09/03 02:16:50;;;;;;;;;;;;;;;13.06;73.75;96804.97;6216387;28;20048;-74
2023/09/03 02:19:54;;;;;;;6.53;5.13;;;;;;;12.96;73.94;96792.44;6216159;28;20384;-73
2023/09/03 02:23:19;;;;;;;7.22;5.45;;;;;;;13.04;73.70;96795.34;6182430;28;20516;-74
2023/09/03 02:26:25;;;;;;;6.97;5.80;;;;;;;13.10;73.71;96799.31;6218232;28;20054;-74
2023/09/03 02:29:27;;;;;;;5.90;4.80;;;;;;;13.12;73.59;96799.22;6212861;28;20049;-73
2023/09/03 02:32:31;;;;;;;6.50;5.53;;;;;;;13.24;73.28;96798.25;6188420;28;20672;-74
2023/09/03 02:35:32;;;;;;;6.20;5.18;;;;;;;13.23;73.04;96796.59;6187746;28;20047;-73
2023/09/03 02:38:36;;;;;;;6.15;5.25;;;;;;;13.21;73.21;96801.97;6191335;28;20054;-73
2023/09/03 02:41:42;;;;;;;5.63;4.70;;;;;;;13.27;73.02;96808.63;6188815;28;20057;-73
2023/09/03 02:44:46;;;;;;;5.75;5.05;;;;;;;13.18;73.16;96798.75;6187398;28;20043;-73
2023/09/03 02:47:50;;;;;;;6.75;5.18;;;;;;;13.35;72.90;96806.22;6188934;28;20061;-73
2023/09/03 02:50:59;;;;;;;6.10;5.07;;;;;;;13.52;72.22;96806.75;6190387;28;20732;-73
2023/09/03 02:54:03;;;;;;;6.47;5.07;;;;;;;13.52;72.22;96807.56;6189622;28;20413;-73
2023/09/03 02:57:06;;;;;;;;;;;;;;;13.59;72.09;96810.59;6179033;28;20042;-73
2023/09/03 03:00:08;;;;;;;7.63;5.13;;;;;;;13.65;71.67;96810.13;6187617;28;20017;-73
2023/09/03 03:03:12;;;;;;;5.10;4.60;;;;;;;13.75;71.37;96803.13;6183254;28;20042;-73
2023/09/03 03:06:15;;;;;;;5.75;4.60;;;;;;;13.84;70.85;96807.72;6189702;28;20053;-72
2023/09/03 03:09:18;;;;;;;5.97;5.00;;;;;;;13.87;70.63;96806.59;6190916;28;20038;-73
2023/09/03 03:12:25;;;;;;;5.82;5.22;;;;;;;14.03;70.05;96814.16;6189110;28;20043;-73
2023/09/03 03:15:34;;;;;;;6.38;5.40;;;;;;;14.13;69.25;96807.19;6191964;28;20031;-73
2023/09/03 03:18:39;;;;;;;6.07;5.00;;;;;;;14.22;68.91;96806.44;6187899;28;20042;-73
2023/09/03 03:21:43;;;;;;;6.82;4.88;;;;;;;14.38;68.30;96791.00;6186508;28;20567;-74
2023/09/03 03:24:51;;;;;;;5.60;4.88;;;;;;;14.61;67.64;96806.84;6188030;28;20034;-73
2023/09/03 03:27:58;;;;;;;6.88;5.30;;;;;;;14.72;67.48;96809.47;6189087;28;20042;-74
2023/09/03 03:31:16;;;;;;;5.47;4.25;;;;;;;14.68;67.28;96808.00;6186807;28;20038;-73
2023/09/03 03:34:17;;;;;;;4.60;4.20;;;;;;;14.60;67.74;96813.09;6190348;28;20039;-72
2023/09/03 03:37:19;;;;;;;7.22;6.38;;;;;;;14.62;67.62;96810.34;6189246;28;20057;-73
2023/09/03 03:40:20;;;;;;;9.10;5.53;;;;;;;14.75;67.30;96797.78;6191538;28;20059;-72
2023/09/03 03:43:28;;;;;;;5.95;5.35;;;;;;;15.02;66.86;96821.94;6191586;28;20045;-74
2023/09/03 03:46:29;;;;;;;5.80;4.72;;;;;;;15.15;66.24;96823.59;6187436;28;20129;-74
2023/09/03 03:49:34;;;;;;;5.78;4.47;;;;;;;15.05;66.48;96828.81;6188787;28;20065;-74
2023/09/03 03:52:42;;;;;;;5.00;4.50;;;;;;;14.80;66.79;96838.81;6191435;28;20521;-75
2023/09/03 03:55:44;;;;;;;5.18;4.32;;;;;;;14.58;67.79;96847.66;6184427;28;20038;-73
2023/09/03 03:58:46;;;;;;;6.70;5.35;;;;;;;14.44;68.18;96847.91;6187550;28;20107;-74
2023/09/03 04:01:50;;;;;;;5.75;4.85;;;;;;;14.37;68.52;96852.84;6186016;28;20071;-74
2023/09/03 04:04:54;;;;;;;7.18;5.55;;;;;;;14.38;68.30;96864.31;6188782;28;20176;-74
2023/09/03 04:07:55;;;;;;;5.70;4.63;;;;;;;14.34;68.44;96868.97;6184629;28;20038;-74
2023/09/03 04:11:00;;;;;;;4.95;4.43;;;;;;;14.43;68.05;96861.25;6186421;28;20046;-74
2023/09/03 04:14:06;;;;;;;5.88;4.60;;;;;;;14.38;67.87;96857.19;6188971;28;20035;-74
2023/09/03 04:17:12;;;;;;;5.45;4.78;;;;;;;14.54;67.88;96856.81;6189779;28;20129;-73
2023/09/03 04:20:14;;;;;;;6.18;4.88;;;;;;;14.73;67.29;96858.81;6188103;28;20528;-74
2023/09/03 04:23:19;;;;;;;5.68;5.07;;;;;;;14.73;67.03;96858.81;6190051;28;20038;-74
2023/09/03 04:26:22;;;;;;;6.30;5.35;;;;;;;14.56;67.63;96862.81;6185051;28;20112;-74
2023/09/03 04:29:28;;;;;;;;;;;;;;;14.49;67.53;96871.34;6189489;28;20042;-74
2023/09/03 04:32:32;;;;;;;8.70;6.13;;;;;;;14.15;68.52;96874.03;6198874;28;19921;-73
2023/09/03 04:35:38;;;;;;;9.07;5.72;;;;;;;14.05;69.00;96875.75;6212162;28;20050;-74
2023/09/03 04:38:39;;;;;;;6.55;4.93;;;;;;;14.12;69.03;96879.59;6214099;28;20489;-74
2023/09/03 04:41:43;;;;;;;5.30;4.75;;;;;;;14.12;68.88;96874.28;6213890;28;22391;-74
2023/09/03 04:44:47;;;;;;;7.05;5.63;;;;;;;14.35;68.37;96875.97;6217975;28;20705;-74
2023/09/03 04:47:51;;;;;;;6.43;5.43;;;;;;;14.59;67.71;96882.94;6218524;28;20041;-74
2023/09/03 04:51:01;;;;;;;8.02;5.50;;;;;;;14.87;67.15;96878.88;6215172;28;20038;-73
2023/09/03 04:54:02;;;;;;;6.38;5.10;;;;;;;15.10;66.20;96874.31;6208578;28;20046;-74
2023/09/03 04:57:04;;;;;;;6.13;4.72;;;;;;;15.40;65.44;96878.00;6213581;28;21972;-74
2023/09/03 05:00:07;;;;;;;5.15;4.20;;;;;;;15.63;64.37;96868.97;6216122;28;20042;-74
2023/09/03 05:03:14;;;;;;;5.68;4.20;;;;;;;15.78;63.92;96866.00;6215554;28;20042;-74
2023/09/03 05:06:20;;;;;;;5.70;4.90;;;;;;;16.04;63.08;96872.53;6211272;28;20038;-74
2023/09/03 05:09:27;;;;;;;7.95;4.43;;;;;;;15.89;63.02;96871.22;6216884;28;20034;-74
2023/09/03 05:12:32;;;;;;;4.75;4.25;;;;;;;15.73;63.33;96854.94;6218526;28;20046;-74
2023/09/03 05:15:37;;;;;;;5.63;4.32;;;;;;;15.50;62.85;96852.41;6218837;28;20183;-73
2023/09/03 05:18:43;;;;;;;7.70;4.47;;;;;;;15.57;62.83;96858.88;6218944;28;20089;-72
2023/09/03 05:21:50;;;;;;;6.65;4.10;;;;;;;15.75;62.39;96868.91;6215468;28;20046;-74
2023/09/03 05:24:51;;;;;;;4.70;3.67;;;;;;;15.79;62.60;96859.72;6216980;28;20045;-74
2023/09/03 05:27:55;;;;;;;5.20;3.67;;;;;;;15.79;62.03;96857.06;6214305;28;20141;-73
2023/09/03 05:30:59;;;;;;;4.78;3.95;;;;;;;15.83;62.42;96855.84;6216951;28;20046;-75
2023/09/03 05:34:00;;;;;;;5.20;4.13;;;;;;;16.08;61.89;96852.72;6193682;28;20054;-74
2023/09/03 05:37:03;;;;;;;6.20;4.43;;;;;;;16.30;60.81;96851.66;6219196;28;20472;-73
2023/09/03 05:40:10;;;;;;;4.70;3.92;;;;;;;16.82;59.13;96857.69;6217639;28;20034;-74
2023/09/03 05:43:16;;;;;;;4.78;3.67;;;;;;;18.47;54.53;96852.97;6215255;28;20055;-73
2023/09/03 05:46:23;;;;;;;5.65;4.43;;;;;;;20.97;47.97;96860.34;6211022;28;20042;-75
2023/09/03 05:49:28;;;;;;;3.35;2.83;;;;;;;21.57;45.81;96855.72;6212725;28;20050;-75
2023/09/03 05:52:35;;;;;;;3.10;2.80;;;;;;;21.06;45.45;96858.53;6214211;28;20046;-74
2023/09/03 05:55:40;;;;;;;4.68;2.97;;;;;;;20.54;46.50;96853.41;6215656;28;20140;-74
2023/09/03 05:58:44;;;;;;;4.78;3.15;;;;;;;20.31;47.03;96847.78;6212107;28;20058;-74
2023/09/03 06:01:48;;;;;;;3.55;3.25;;;;;;;20.37;46.54;96857.81;6210764;28;20041;-74
2023/09/03 06:04:54;;;;;;;3.63;2.53;;;;;;;20.18;45.93;96858.91;6211862;28;20437;-74
2023/09/03 06:07:58;;;;;;;;;;;;;;;20.47;45.47;96857.72;6213074;28;21654;-75
2023/09/03 06:11:05;;;;;;;3.22;2.85;;;;;;;20.02;46.20;96849.00;6215677;28;19921;-74
2023/09/03 06:14:09;;;;;;;4.13;2.90;;;;;;;19.68;46.00;96852.47;6217195;28;20061;-74
2023/09/03 06:17:13;;;;;;;3.65;3.30;;;;;;;19.21;47.08;96852.72;6213316;28;20053;-75
2023/09/03 06:20:14;;;;;;;4.95;3.33;;;;;;;18.95;47.61;96839.34;6213985;28;20038;-75
2023/09/03 06:23:19;;;;;;;3.97;3.45;;;;;;;18.91;47.81;96842.44;6214598;28;20168;-76
2023/09/03 06:26:22;;;;;;;4.88;3.70;;;;;;;19.08;47.54;96846.97;6213849;28;20445;-74
2023/09/03 06:29:26;;;;;;;4.07;3.33;;;;;;;19.61;45.61;96843.34;6214101;28;20038;-75
2023/09/03 06:32:28;;;;;;;;;;;;;;;20.57;44.67;96837.88;6213709;28;20038;-74
2023/09/03 06:35:29;;;;;;;3.80;3.35;;;;;;;20.78;43.59;96833.94;6210863;28;19926;-75
2023/09/03 06:38:34;;;;;;;8.00;4.60;;;;;;;20.77;43.04;96826.88;6209800;28;20188;-73
2023/09/03 06:41:36;;;;;;;4.97;3.10;;;;;;;20.49;42.82;96832.47;6216571;28;20073;-73
2023/09/03 06:44:40;;;;;;;5.32;3.78;;;;;;;20.29;42.99;96825.72;6199425;28;20054;-73
2023/09/03 06:47:47;;;;;;;3.55;3.17;;;;;;;20.31;43.43;96832.56;6195901;28;20464;-73
2023/09/03 06:50:51;;;;;;;3.40;3.10;;;;;;;20.75;42.44;96828.88;6216129;28;20046;-76
2023/09/03 06:53:55;;;;;;;3.28;2.97;;;;;;;21.11;41.59;96824.09;6215274;28;20582;-75
2023/09/03 06:57:03;;;;;;;3.25;2.90;;;;;;;21.45;41.50;96831.13;6215110;28;20037;-74
2023/09/03 07:00:06;;;;;;;3.80;2.90;;;;;;;22.35;40.08;96828.28;6212295;28;20046;-74
2023/09/03 07:03:11;;;;;;;5.32;3.78;;;;;;;25.34;36.10;96843.66;6211711;28;20049;-75
2023/09/03 07:06:15;;;;;;;7.75;2.72;;;;;;;30.23;29.35;96846.72;6212028;28;20046;-74
2023/09/03 07:09:22;;;;;;;3.58;2.67;;;;;;;34.20;24.72;96856.19;6213060;28;20034;-76
2023/09/03 07:12:24;;;;;;;3.78;2.17;;;;;;;34.31;23.98;96853.59;6214702;28;20050;-76
2023/09/03 07:15:30;;;;;;;2.67;2.40;;;;;;;32.38;25.14;96836.94;6209533;28;20048;-76
2023/09/03 07:18:36;;;;;;;4.22;2.45;;;;;;;30.17;27.25;96839.44;6211007;28;20050;-75
2023/09/03 07:21:42;;;;;;;3.30;2.30;;;;;;;27.67;30.02;96829.41;6209600;28;20140;-73
2023/09/03 07:24:43;;;;;;;2.77;2.53;;;;;;;26.03;32.79;96837.56;6209851;28;20080;-73
2023/09/03 07:27:47;;;;;;;4.50;2.90;;;;;;;24.35;35.05;96829.84;6211570;28;20058;-75
2023/09/03 07:30:51;;;;;;;6.97;3.50;;;;;;;22.71;37.95;96825.91;6209725;28;20065;-75
2023/09/03 07:33:59;;;;;;;3.90;3.30;;;;;;;21.42;40.42;96826.13;6174660;28;32908;-74
2023/09/03 07:37:06;;;;;;;4.30;2.80;;;;;;;20.62;41.63;96819.50;6209388;28;20422;-74
2023/09/03 07:40:10;;;;;;;4.50;3.85;;;;;;;20.12;42.60;96828.31;6211699;28;20501;-74
2023/09/03 07:43:15;;;;;;;3.80;3.30;;;;;;;19.69;43.75;96816.75;6212309;28;20042;-75
2023/09/03 07:46:24;;;;;;;3.75;3.35;;;;;;;19.56;44.59;96820.78;6219201;28;20042;-78
2023/09/03 07:49:31;;;;;;;3.50;3.20;;;;;;;19.69;44.45;96816.75;6224832;28;20048;-78
2023/09/03 07:52:37;;;;;;;5.25;3.85;;;;;;;20.00;43.91;96818.91;6229110;28;20070;-78
2023/09/03 07:55:44;;;;;;;5.25;3.60;;;;;;;20.18;43.28;96827.69;6235872;28;20048;-77
2023/09/03 07:58:46;;;;;;;7.03;3.97;;;;;;;20.28;42.97;96822.22;6218489;28;20041;-76
2023/09/03 08:01:50;;;;;;;6.35;4.25;;;;;;;20.53;42.66;96827.69;6194653;28;20449;-75
2023/09/03 08:04:57;;;;;;;5.82;4.07;;;;;;;20.55;42.47;96823.84;6215352;28;20048;-76
2023/09/03 08:08:04;;;;;;;4.13;3.47;;;;;;;20.50;43.01;96827.97;6218253;28;20151;-78
2023/09/03 08:11:07;;;;;;;5.55;4.00;;;;;;;20.37;43.03;96826.59;6205119;28;20136;-78
2023/09/03 08:14:16;;;;;;;4.65;3.53;;;;;;;20.24;43.40;96833.38;6208967;28;20046;-78
2023/09/03 08:17:26;;;;;;;4.97;3.63;;;;;;;19.93;44.41;96823.25;6207725;28;20045;-78
2023/09/03 08:20:30;;;;;;;6.50;5.40;;;;;;;19.68;44.62;96823.09;6210647;28;20042;-77
2023/09/03 08:23:34;;;;;;;5.18;4.22;;;;;;;19.33;45.25;96829.31;6176945;28;20038;-77
2023/09/03 08:26:38;;;;;;;7.43;4.35;;;;;;;18.74;46.71;96826.31;6195409;28;20060;-77
2023/09/03 08:29:42;;;;;;;8.77;4.10;;;;;;;18.40;47.53;96837.59;6195042;28;20092;-77
2023/09/03 08:32:47;;;;;;;4.25;3.85;;;;;;;18.22;48.65;96852.66;6214197;28;20049;-77
2023/09/03 08:35:52;;;;;;;6.32;3.42;;;;;;;18.26;48.41;96838.09;6209380;28;20057;-77
2023/09/03 08:39:01;;;;;;;5.47;3.90;;;;;;;18.13;48.50;96845.56;6208220;28;20042;-77
2023/09/03 08:42:07;;;;;;;3.70;3.08;;;;;;;17.97;49.01;96843.53;6209548;28;20038;-76
2023/09/03 08:45:17;;;;;;;4.78;3.30;;;;;;;17.84;48.72;96853.69;6214735;28;20560;-78
2023/09/03 08:48:24;;;;;;;5.57;4.13;;;;;;;17.73;49.15;96852.00;6213261;28;20037;-75
2023/09/03 08:51:32;;;;;;;5.82;3.90;;;;;;;17.78;49.36;96849.78;6211064;28;20030;-76
2023/09/03 08:54:37;;;;;;;5.15;4.03;;;;;;;18.45;47.88;96854.94;6214285;28;20061;-79
2023/09/03 08:57:43;;;;;;;6.35;4.03;;;;;;;19.39;46.21;96841.19;6216199;28;20042;-77
2023/09/03 09:00:47;;;;;;;5.70;4.40;;;;;;;19.92;44.33;96848.25;6198572;28;20054;-77
2023/09/03 09:03:56;;;;;;;5.63;4.55;;;;;;;20.00;44.22;96842.97;6209379;28;20045;-77
2023/09/03 09:07:01;;;;;;;6.38;4.30;;;;;;;20.24;44.11;96852.94;6199533;28;20120;-76
2023/09/03 09:10:17;;;;;;;3.92;3.58;;;;;;;20.39;42.95;96847.81;6212087;28;20042;-77
2023/09/03 09:13:25;;;;;;;5.10;3.83;;;;;;;21.36;40.45;96854.38;6210780;28;20531;-77
2023/09/03 09:16:29;;;;;;;5.47;4.85;;;;;;;21.90;38.99;96851.16;6209155;28;20445;-78
2023/09/03 09:19:34;;;;;;;4.72;3.60;;;;;;;22.14;38.26;96852.94;6210948;28;20046;-78
2023/09/03 09:22:44;;;;;;;4.50;3.30;;;;;;;22.72;37.10;96846.34;6195589;28;20046;-78
2023/09/03 09:25:50;;;;;;;4.18;3.20;;;;;;;22.86;37.18;96853.63;6182760;28;20038;-77
2023/09/03 09:29:00;;;;;;;5.07;3.83;;;;;;;22.29;37.84;96842.38;6217601;28;20065;-77
2023/09/03 09:32:18;;;;;;;5.18;3.72;;;;;;;21.60;38.75;96844.66;6189030;28;20122;-77
2023/09/03 09:35:24;;;;;;;4.10;3.15;;;;;;;21.02;39.52;96844.66;6218491;28;20041;-77
2023/09/03 09:38:38;;;;;;;5.63;3.78;;;;;;;20.83;39.86;96847.63;6215404;28;20038;-77
2023/09/03 09:41:43;;;;;;;5.55;4.03;;;;;;;20.85;40.12;96842.94;6215042;28;20522;-77
2023/09/03 09:44:55;;;;;;;5.03;3.70;;;;;;;20.97;39.93;96846.97;6212891;28;20038;-77
2023/09/03 09:48:10;;;;;;;7.07;4.78;;;;;;;20.99;39.86;96846.81;6216507;28;20050;-77
2023/09/03 09:51:14;;;;;;;4.63;3.92;;;;;;;20.73;40.35;96841.59;6193504;28;20771;-77
2023/09/03 09:54:19;;;;;;;4.78;4.22;;;;;;;20.38;40.28;96843.44;6208329;28;20093;-76
2023/09/03 09:57:25;;;;;;;6.32;4.30;;;;;;;19.95;41.47;96842.59;6213441;28;20124;-76
2023/09/03 10:00:38;;;;;;;7.10;4.40;;;;;;;19.69;42.43;96843.44;6199264;28;20574;-75
2023/09/03 10:03:50;;;;;;;4.18;3.75;;;;;;;19.68;42.33;96841.78;6199073;28;20034;-74
2023/09/03 10:06:56;;;;;;;6.88;5.40;;;;;;;19.79;41.86;96842.50;6192040;28;20048;-79
2023/09/03 10:10:05;;;;;;;6.05;4.50;;;;;;;19.81;41.74;96837.84;6215820;28;20543;-76
2023/09/03 10:13:10;;;;;;;7.03;4.50;;;;;;;20.00;41.69;96840.28;6213053;28;20128;-75
2023/09/03 10:16:18;;;;;;;6.60;4.35;;;;;;;20.26;41.30;96834.06;6192836;28;20041;-75
2023/09/03 10:19:27;;;;;;;5.20;4.10;;;;;;;20.37;40.85;96837.28;6212733;28;20612;-78
2023/09/03 10:22:36;;;;;;;4.43;3.17;;;;;;;20.29;41.42;96844.41;6214055;28;20160;-75
2023/09/03 10:25:42;;;;;;;4.25;2.97;;;;;;;20.28;41.35;96848.09;6216028;28;20035;-75
2023/09/03 10:28:51;;;;;;;4.55;2.97;;;;;;;20.41;41.44;96843.16;6215972;28;20137;-75
2023/09/03 10:31:58;;;;;;;4.95;3.13;;;;;;;20.53;40.96;96844.56;6211687;28;20487;-74
2023/09/03 10:35:11;;;;;;;5.53;3.92;;;;;;;20.50;41.41;96842.16;6195868;28;20072;-69
2023/09/03 10:38:31;;;;;;;8.40;4.55;;;;;;;20.27;41.03;96852.63;6211221;28;20140;-77
2023/09/03 10:41:35;;;;;;;8.60;6.03;;;;;;;20.52;41.10;96856.22;6216349;28;20562;-73
2023/09/03 10:44:43;;;;;;;4.55;3.40;;;;;;;20.86;40.63;96852.63;6195159;28;20053;-69
2023/09/03 10:48:05;;;;;;;4.30;3.35;;;;;;;21.21;40.01;96856.88;6213384;28;20046;-69
2023/09/03 10:51:29;;;;;;;4.05;2.95;;;;;;;21.56;39.36;96849.53;6208160;28;20552;-74
2023/09/03 10:54:33;;;;;;;7.28;3.22;;;;;;;23.05;36.96;96863.13;6208276;28;20064;-71
2023/09/03 10:57:39;;;;;;;5.07;3.35;;;;;;;24.03;34.91;96850.69;6209962;28;20516;-72
2023/09/03 11:01:18;;;;;;;5.30;3.10;;;;;;;24.76;33.83;96859.75;6208717;28;20072;-67
2023/09/03 11:04:23;;;;;;;20.05;13.45;;;;;;;24.90;34.05;96860.75;6207519;28;20037;-70
2023/09/03 11:07:28;;;;;;;3.70;3.40;;;;;;;25.36;33.17;96852.34;6205756;28;20042;-71
2023/09/03 11:10:37;;;;;;;3.78;3.40;;;;;;;25.55;32.26;96856.25;6210355;28;20088;-70
2023/09/03 11:13:41;;;;;;;3.72;3.17;;;;;;;24.47;33.51;96849.91;6206724;28;20072;-73
2023/09/03 11:16:45;;;;;;;4.75;3.35;;;;;;;23.98;34.54;96847.75;6191315;28;20046;-73
2023/09/03 11:19:50;;;;;;;6.88;4.80;;;;;;;24.18;34.23;96843.50;6208572;28;20072;-74
2023/09/03 11:22:52;;;;;;;7.25;4.35;;;;;;;23.90;34.12;96850.53;6211834;28;20038;-75
2023/09/03 11:25:53;;;;;;;4.82;3.65;;;;;;;23.82;34.50;96842.53;6209197;28;20059;-67
2023/09/03 11:29:02;;;;;;;4.18;3.25;;;;;;;23.27;35.64;96839.97;6210095;28;20038;-70
2023/09/03 11:32:04;;;;;;;4.25;3.55;;;;;;;22.38;36.53;96844.84;6196553;28;20081;-71
2023/09/03 11:35:07;;;;;;;4.95;3.92;;;;;;;21.46;38.20;96848.91;6212121;28;20037;-69
2023/09/03 11:38:09;;;;;;;4.97;3.45;;;;;;;20.74;39.92;96845.94;6208290;28;20270;-66
2023/09/03 11:41:11;;;;;;;4.93;3.53;;;;;;;20.11;41.47;96852.53;6211078;28;20045;-68
2023/09/03 11:44:14;;;;;;;4.57;3.97;;;;;;;19.65;42.61;96857.25;6209803;28;20128;-65
2023/09/03 11:47:18;;;;;;;6.20;3.85;;;;;;;19.19;42.90;96817.38;6207168;28;20285;-66
2023/09/03 11:50:19;;;;;;;;;;;;;;;19.46;42.76;96852.94;6211161;28;20080;-63
2023/09/03 11:53:23;;;;;;;5.88;3.90;;;;;;;19.87;42.58;96853.22;6213563;28;19921;-62
2023/09/03 11:56:28;;;;;;;6.80;4.43;;;;;;;20.39;41.81;96850.50;6213630;28;20713;-66
2023/09/03 11:59:33;;;;;;;8.45;4.82;;;;;;;21.65;39.92;96861.06;6211423;28;20050;-66
2023/09/03 12:02:34;;;;;;;8.18;4.93;;;;;;;22.87;38.14;96859.81;6209841;28;20579;-64
2023/09/03 12:05:45;;;;;;;8.88;4.97;;;;;;;23.12;37.49;96863.22;6214370;28;20152;-64
2023/09/03 12:08:50;;;;;;;9.68;6.00;;;;;;;22.91;37.46;96861.16;6214042;28;20046;-65
2023/09/03 12:11:51;;;;;;;6.78;4.75;;;;;;;23.06;37.23;96853.22;6211142;28;20053;-72
2023/09/03 12:14:55;;;;;;;5.07;4.00;;;;;;;23.60;36.31;96861.16;6205666;28;20034;-71
2023/09/03 12:18:08;;;;;;;4.32;3.90;;;;;;;23.26;36.26;96870.50;6207516;28;20050;-73
2023/09/03 12:21:10;;;;;;;5.63;4.50;;;;;;;22.50;37.40;96868.56;6211363;28;20046;-73
2023/09/03 12:24:16;;;;;;;7.80;4.78;;;;;;;21.86;38.52;96858.72;6205292;28;20456;-72
2023/09/03 12:27:22;;;;;;;7.18;4.90;;;;;;;21.39;39.59;96875.47;6209279;28;20042;-71
2023/09/03 12:30:46;;;;;;;6.93;5.05;;;;;;;21.04;40.60;96865.91;6191923;28;20046;-71
2023/09/03 12:33:49;;;;;;;6.28;5.18;;;;;;;20.96;40.66;96861.34;6205757;28;20058;-71
2023/09/03 12:36:57;;;;;;;6.15;4.88;;;;;;;21.42;40.37;96869.78;6209373;28;20058;-70
2023/09/03 12:39:58;;;;;;;6.95;5.35;;;;;;;21.95;39.29;96860.34;6209523;28;20438;-76
2023/09/03 12:43:03;;;;;;;7.68;5.28;;;;;;;22.20;38.96;96873.72;6209318;28;20054;-73
2023/09/03 12:46:07;;;;;;;6.30;4.80;;;;;;;22.47;38.50;96877.81;6208477;28;20459;-76
2023/09/03 12:49:15;;;;;;;8.75;5.95;;;;;;;22.33;38.99;96857.09;6206802;28;20077;-77
2023/09/03 12:52:20;;;;;;;10.82;6.28;;;;;;;21.90;40.73;96873.41;6208563;28;20793;-76
2023/09/03 12:55:25;;;;;;;10.63;6.85;;;;;;;21.11;42.54;96874.09;6208110;28;20539;-76
2023/09/03 12:58:32;;;;;;;12.13;7.50;;;;;;;20.41;44.60;96880.56;6209353;28;20485;-76
2023/09/03 13:01:40;;;;;;;10.05;6.75;;;;;;;20.22;45.39;96886.97;6207468;28;20493;-76
2023/09/03 13:04:45;;;;;;;9.50;6.57;;;;;;;20.27;45.34;96891.84;6213464;28;20064;-75
2023/09/03 13:07:51;;;;;;;11.13;6.00;;;;;;;20.49;45.34;96883.25;6211715;28;20164;-75
2023/09/03 13:10:56;;;;;;;9.35;6.50;;;;;;;20.52;44.95;96890.97;6210070;28;20697;-75
2023/09/03 13:14:00;;;;;;;11.10;6.75;;;;;;;20.33;45.61;96888.53;6209622;28;20043;-76
2023/09/03 13:17:02;;;;;;;10.00;6.55;;;;;;;19.97;46.14;96888.69;6207739;28;20049;-76
2023/09/03 13:20:04;;;;;;;9.77;6.18;;;;;;;19.48;47.23;96894.47;6212719;28;20080;-76
2023/09/03 13:23:10;;;;;;;13.60;6.85;;;;;;;19.03;48.36;96894.59;6196051;28;20137;-76
2023/09/03 13:26:14;;;;;;;11.25;7.55;;;;;;;18.66;49.86;96892.81;6207927;28;20046;-76
2023/09/03 13:29:18;;;;;;;15.43;8.45;;;;;;;18.29;51.11;96900.88;6215903;28;20057;-76
2023/09/03 13:32:22;;;;;;;14.25;8.85;;;;;;;18.10;51.81;96915.09;6213551;28;20763;-76
2023/09/03 13:35:25;;;;;;;10.98;7.55;;;;;;;17.85;52.52;96914.72;6214260;28;20053;-76
2023/09/03 13:38:28;;;;;;;14.67;9.00;;;;;;;17.71;52.66;96908.00;6212698;28;20046;-75
2023/09/03 13:41:35;;;;;;;10.73;7.32;;;;;;;17.68;53.00;96915.44;6207482;28;20050;-75
2023/09/03 13:44:39;;;;;;;11.90;7.20;;;;;;;17.58;53.43;96910.16;6211680;28;20050;-76
2023/09/03 13:47:46;;;;;;;15.43;8.00;;;;;;;17.45;53.68;96913.09;6217321;28;20068;-75
2023/09/03 13:50:54;;;;;;;14.15;7.45;;;;;;;17.21;54.03;96910.88;6215194;28;20045;-77
2023/09/03 13:53:59;;;;;;;16.50;8.00;;;;;;;17.02;54.90;96917.00;6213167;28;20061;-75
2023/09/03 13:57:03;;;;;;;11.98;8.48;;;;;;;16.86;55.24;96921.19;6214170;28;20056;-77
2023/09/03 14:00:08;;;;;;;14.50;8.55;;;;;;;16.63;55.92;96899.28;6198938;28;20140;-77
2023/09/03 14:03:09;;;;;;;13.20;8.38;;;;;;;16.64;56.09;96916.91;6216384;28;20108;-77
2023/09/03 14:06:13;;;;;;;14.95;7.57;;;;;;;16.61;56.20;96932.13;6207268;28;20038;-77
2023/09/03 14:09:16;;;;;;;12.07;7.60;;;;;;;16.49;56.34;96909.31;6216540;28;20046;-76
2023/09/03 14:12:24;;;;;;;9.23;6.43;;;;;;;16.48;56.58;96934.19;6217875;28;20057;-76
2023/09/03 14:15:39;;;;;;;8.75;6.18;;;;;;;16.37;57.00;96936.94;6192606;28;20064;-76
2023/09/03 14:18:44;;;;;;;9.45;6.28;;;;;;;16.34;56.96;96940.72;6213839;28;20072;-77
2023/09/03 14:21:56;;;;;;;7.53;5.32;;;;;;;16.23;57.33;96934.66;6214728;28;20494;-77
2023/09/03 14:25:00;;;;;;;10.10;6.18;;;;;;;16.13;57.67;96935.44;6216539;28;20089;-76
2023/09/03 14:28:03;;;;;;;10.30;5.70;;;;;;;16.01;57.98;96941.81;6216023;28;20034;-77
2023/09/03 14:31:07;;;;;;;10.32;6.05;;;;;;;15.86;58.54;96943.13;6192012;28;20065;-76
2023/09/03 14:34:11;;;;;;;11.60;6.95;;;;;;;15.82;58.92;96954.97;6198433;28;20513;-77
2023/09/03 14:37:16;;;;;;;8.82;6.18;;;;;;;15.66;59.52;96953.59;6216613;28;20516;-77